sensor_id;sensor_type;location;lat;lon;timestamp;P1;durP1;ratioP1;P2;durP2;ratioP2
19030;SDS011;9648;51.130;13.978;2022-12-15T00:01:48;52.58;;;28.20;;
19030;SDS011;9648;51.130;13.978;2022-12-15T00:04:32;49.67;;;26.80;;
19030;SDS011;9648;51.130;13.978;2022-12-15T00:07:17;54.73;;;27.47;;
19030;SDS011;9648;51.130;13.978;2022-12-15T00:10:03;48.88;;;26.45;;
19030;SDS011;9648;51.130;13.978;2022-12-15T00:12:48;49.35;;;26.83;;
19030;SDS011;9648;51.130;13.978;2022-12-15T00:15:33;49.17;;;26.10;;
19030;SDS011;9648;51.130;13.978;2022-12-15T00:18:17;51.65;;;27.27;;
19030;SDS011;9648;51.130;13.978;2022-12-15T00:21:01;49.75;;;25.98;;
19030;SDS011;9648;51.130;13.978;2022-12-15T00:23:45;46.83;;;25.67;;
19030;SDS011;9648;51.130;13.978;2022-12-15T00:26:31;51.20;;;26.92;;
19030;SDS011;9648;51.130;13.978;2022-12-15T00:29:16;48.03;;;25.38;;
19030;SDS011;9648;51.130;13.978;2022-12-15T00:32:00;51.78;;;27.17;;
19030;SDS011;9648;51.130;13.978;2022-12-15T00:34:44;52.57;;;27.47;;
19030;SDS011;9648;51.130;13.978;2022-12-15T00:37:28;48.97;;;26.48;;
19030;SDS011;9648;51.130;13.978;2022-12-15T00:40:13;48.42;;;26.50;;
19030;SDS011;9648;51.130;13.978;2022-12-15T00:42:41;46.70;;;25.13;;
19030;SDS011;9648;51.130;13.978;2022-12-15T00:45:08;46.35;;;25.00;;
19030;SDS011;9648;51.130;13.978;2022-12-15T00:47:36;47.28;;;25.48;;
19030;SDS011;9648;51.130;13.978;2022-12-15T00:50:01;48.47;;;25.92;;
19030;SDS011;9648;51.130;13.978;2022-12-15T00:52:46;50.37;;;27.43;;
19030;SDS011;9648;51.130;13.978;2022-12-15T00:55:31;48.88;;;25.55;;
19030;SDS011;9648;51.130;13.978;2022-12-15T00:58:17;49.47;;;25.67;;
19030;SDS011;9648;51.130;13.978;2022-12-15T01:01:04;49.07;;;25.97;;
19030;SDS011;9648;51.130;13.978;2022-12-15T01:03:49;44.63;;;24.42;;
19030;SDS011;9648;51.130;13.978;2022-12-15T01:06:34;49.40;;;26.10;;
19030;SDS011;9648;51.130;13.978;2022-12-15T01:09:18;49.85;;;25.73;;
19030;SDS011;9648;51.130;13.978;2022-12-15T01:12:02;47.75;;;24.77;;
19030;SDS011;9648;51.130;13.978;2022-12-15T01:14:51;54.72;;;26.92;;
19030;SDS011;9648;51.130;13.978;2022-12-15T01:17:36;48.55;;;26.15;;
19030;SDS011;9648;51.130;13.978;2022-12-15T01:20:20;53.45;;;27.80;;
19030;SDS011;9648;51.130;13.978;2022-12-15T01:22:47;50.40;;;26.80;;
19030;SDS011;9648;51.130;13.978;2022-12-15T01:25:15;49.33;;;27.20;;
19030;SDS011;9648;51.130;13.978;2022-12-15T01:27:43;49.03;;;26.75;;
19030;SDS011;9648;51.130;13.978;2022-12-15T01:30:13;50.47;;;27.15;;
19030;SDS011;9648;51.130;13.978;2022-12-15T01:32:41;50.63;;;27.52;;
19030;SDS011;9648;51.130;13.978;2022-12-15T01:35:09;53.65;;;28.60;;
19030;SDS011;9648;51.130;13.978;2022-12-15T01:37:36;53.10;;;28.67;;
19030;SDS011;9648;51.130;13.978;2022-12-15T01:40:04;59.95;;;32.15;;
19030;SDS011;9648;51.130;13.978;2022-12-15T01:42:49;54.55;;;28.73;;
19030;SDS011;9648;51.130;13.978;2022-12-15T01:48:08;51.10;;;27.98;;
19030;SDS011;9648;51.130;13.978;2022-12-15T01:50:38;54.63;;;29.45;;
19030;SDS011;9648;51.130;13.978;2022-12-15T01:53:09;54.28;;;29.88;;
19030;SDS011;9648;51.130;13.978;2022-12-15T01:55:36;50.95;;;28.08;;
19030;SDS011;9648;51.130;13.978;2022-12-15T01:58:06;50.60;;;27.77;;
19030;SDS011;9648;51.130;13.978;2022-12-15T02:00:35;56.20;;;31.10;;
19030;SDS011;9648;51.130;13.978;2022-12-15T02:03:04;54.37;;;30.03;;
19030;SDS011;9648;51.130;13.978;2022-12-15T02:05:32;52.25;;;29.15;;
19030;SDS011;9648;51.130;13.978;2022-12-15T02:08:00;55.90;;;31.15;;
19030;SDS011;9648;51.130;13.978;2022-12-15T02:10:31;54.28;;;29.95;;
19030;SDS011;9648;51.130;13.978;2022-12-15T02:13:07;53.72;;;30.45;;
19030;SDS011;9648;51.130;13.978;2022-12-15T02:15:42;54.50;;;29.90;;
19030;SDS011;9648;51.130;13.978;2022-12-15T02:18:19;54.23;;;29.77;;
19030;SDS011;9648;51.130;13.978;2022-12-15T02:20:53;53.22;;;30.48;;
19030;SDS011;9648;51.130;13.978;2022-12-15T02:23:38;58.10;;;32.40;;
19030;SDS011;9648;51.130;13.978;2022-12-15T02:29:50;60.37;;;32.93;;
19030;SDS011;9648;51.130;13.978;2022-12-15T02:32:45;60.83;;;32.05;;
19030;SDS011;9648;51.130;13.978;2022-12-15T02:35:20;58.28;;;31.70;;
19030;SDS011;9648;51.130;13.978;2022-12-15T02:37:51;59.03;;;31.60;;
19030;SDS011;9648;51.130;13.978;2022-12-15T02:40:18;55.85;;;31.40;;
19030;SDS011;9648;51.130;13.978;2022-12-15T02:42:46;56.83;;;30.92;;
19030;SDS011;9648;51.130;13.978;2022-12-15T02:45:17;58.05;;;31.25;;
19030;SDS011;9648;51.130;13.978;2022-12-15T02:47:51;58.67;;;32.30;;
19030;SDS011;9648;51.130;13.978;2022-12-15T02:50:31;55.97;;;31.55;;
19030;SDS011;9648;51.130;13.978;2022-12-15T02:53:14;57.28;;;31.52;;
19030;SDS011;9648;51.130;13.978;2022-12-15T02:55:54;55.55;;;30.77;;
19030;SDS011;9648;51.130;13.978;2022-12-15T02:58:29;56.03;;;31.85;;
19030;SDS011;9648;51.130;13.978;2022-12-15T03:01:04;53.70;;;30.40;;
19030;SDS011;9648;51.130;13.978;2022-12-15T03:03:38;54.85;;;31.17;;
19030;SDS011;9648;51.130;13.978;2022-12-15T03:06:07;59.93;;;32.40;;
19030;SDS011;9648;51.130;13.978;2022-12-15T03:08:34;55.28;;;30.83;;
19030;SDS011;9648;51.130;13.978;2022-12-15T03:11:01;58.20;;;31.77;;
19030;SDS011;9648;51.130;13.978;2022-12-15T03:13:28;58.15;;;31.48;;
19030;SDS011;9648;51.130;13.978;2022-12-15T03:15:55;61.45;;;32.72;;
19030;SDS011;9648;51.130;13.978;2022-12-15T03:18:22;54.88;;;30.30;;
19030;SDS011;9648;51.130;13.978;2022-12-15T03:20:50;60.00;;;32.57;;
19030;SDS011;9648;51.130;13.978;2022-12-15T03:23:17;58.80;;;32.63;;
19030;SDS011;9648;51.130;13.978;2022-12-15T03:25:47;59.30;;;31.90;;
19030;SDS011;9648;51.130;13.978;2022-12-15T03:28:14;54.53;;;30.25;;
19030;SDS011;9648;51.130;13.978;2022-12-15T03:30:41;54.50;;;30.47;;
19030;SDS011;9648;51.130;13.978;2022-12-15T03:33:08;55.00;;;30.77;;
19030;SDS011;9648;51.130;13.978;2022-12-15T03:35:35;53.90;;;29.52;;
19030;SDS011;9648;51.130;13.978;2022-12-15T03:38:03;54.25;;;29.08;;
19030;SDS011;9648;51.130;13.978;2022-12-15T03:40:30;54.42;;;30.23;;
19030;SDS011;9648;51.130;13.978;2022-12-15T03:42:57;50.50;;;28.60;;
19030;SDS011;9648;51.130;13.978;2022-12-15T03:45:24;54.40;;;30.23;;
19030;SDS011;9648;51.130;13.978;2022-12-15T03:47:54;51.10;;;29.23;;
19030;SDS011;9648;51.130;13.978;2022-12-15T03:50:22;49.47;;;28.35;;
19030;SDS011;9648;51.130;13.978;2022-12-15T03:52:51;54.88;;;30.30;;
19030;SDS011;9648;51.130;13.978;2022-12-15T03:55:20;50.97;;;28.77;;
19030;SDS011;9648;51.130;13.978;2022-12-15T03:57:50;50.78;;;28.60;;
19030;SDS011;9648;51.130;13.978;2022-12-15T04:00:18;55.88;;;30.73;;
19030;SDS011;9648;51.130;13.978;2022-12-15T04:02:46;54.97;;;30.20;;
19030;SDS011;9648;51.130;13.978;2022-12-15T04:05:14;58.45;;;31.25;;
19030;SDS011;9648;51.130;13.978;2022-12-15T04:07:43;54.40;;;29.75;;
19030;SDS011;9648;51.130;13.978;2022-12-15T04:10:10;55.83;;;30.38;;
19030;SDS011;9648;51.130;13.978;2022-12-15T04:12:38;57.67;;;31.50;;
19030;SDS011;9648;51.130;13.978;2022-12-15T04:15:06;55.50;;;30.50;;
19030;SDS011;9648;51.130;13.978;2022-12-15T04:17:34;52.72;;;28.85;;
19030;SDS011;9648;51.130;13.978;2022-12-15T04:20:01;56.08;;;30.83;;
19030;SDS011;9648;51.130;13.978;2022-12-15T04:22:36;53.70;;;29.07;;
19030;SDS011;9648;51.130;13.978;2022-12-15T04:25:05;51.50;;;28.58;;
19030;SDS011;9648;51.130;13.978;2022-12-15T04:27:52;52.90;;;29.60;;
19030;SDS011;9648;51.130;13.978;2022-12-15T04:30:37;61.00;;;31.90;;
19030;SDS011;9648;51.130;13.978;2022-12-15T04:33:22;58.78;;;31.67;;
19030;SDS011;9648;51.130;13.978;2022-12-15T04:36:08;54.90;;;30.63;;
19030;SDS011;9648;51.130;13.978;2022-12-15T04:38:55;53.33;;;29.25;;
19030;SDS011;9648;51.130;13.978;2022-12-15T04:41:40;52.15;;;28.13;;
19030;SDS011;9648;51.130;13.978;2022-12-15T04:44:26;51.60;;;27.20;;
19030;SDS011;9648;51.130;13.978;2022-12-15T04:47:11;52.25;;;28.63;;
19030;SDS011;9648;51.130;13.978;2022-12-15T04:49:55;53.40;;;29.20;;
19030;SDS011;9648;51.130;13.978;2022-12-15T04:52:39;50.10;;;26.65;;
19030;SDS011;9648;51.130;13.978;2022-12-15T04:55:23;52.08;;;27.95;;
19030;SDS011;9648;51.130;13.978;2022-12-15T04:58:08;54.50;;;28.45;;
19030;SDS011;9648;51.130;13.978;2022-12-15T05:00:55;49.72;;;26.73;;
19030;SDS011;9648;51.130;13.978;2022-12-15T05:03:43;55.03;;;29.40;;
19030;SDS011;9648;51.130;13.978;2022-12-15T05:06:28;52.50;;;27.88;;
19030;SDS011;9648;51.130;13.978;2022-12-15T05:09:12;54.22;;;27.92;;
19030;SDS011;9648;51.130;13.978;2022-12-15T05:11:56;48.67;;;26.92;;
19030;SDS011;9648;51.130;13.978;2022-12-15T05:14:41;49.78;;;27.95;;
19030;SDS011;9648;51.130;13.978;2022-12-15T05:17:26;50.50;;;27.35;;
19030;SDS011;9648;51.130;13.978;2022-12-15T05:20:12;50.33;;;26.77;;
19030;SDS011;9648;51.130;13.978;2022-12-15T05:22:57;50.03;;;27.73;;
19030;SDS011;9648;51.130;13.978;2022-12-15T05:25:41;51.58;;;27.48;;
19030;SDS011;9648;51.130;13.978;2022-12-15T05:28:26;52.10;;;27.88;;
19030;SDS011;9648;51.130;13.978;2022-12-15T05:31:10;56.25;;;29.67;;
19030;SDS011;9648;51.130;13.978;2022-12-15T05:33:57;49.92;;;27.15;;
19030;SDS011;9648;51.130;13.978;2022-12-15T05:36:24;51.58;;;27.90;;
19030;SDS011;9648;51.130;13.978;2022-12-15T05:38:51;51.53;;;27.33;;
19030;SDS011;9648;51.130;13.978;2022-12-15T05:41:19;53.92;;;28.60;;
19030;SDS011;9648;51.130;13.978;2022-12-15T05:43:46;52.20;;;28.05;;
19030;SDS011;9648;51.130;13.978;2022-12-15T05:46:13;50.53;;;27.05;;
19030;SDS011;9648;51.130;13.978;2022-12-15T05:48:40;53.50;;;28.48;;
19030;SDS011;9648;51.130;13.978;2022-12-15T05:51:09;50.05;;;27.13;;
19030;SDS011;9648;51.130;13.978;2022-12-15T05:53:37;49.83;;;26.95;;
19030;SDS011;9648;51.130;13.978;2022-12-15T05:56:05;51.10;;;28.08;;
19030;SDS011;9648;51.130;13.978;2022-12-15T05:58:34;49.95;;;26.42;;
19030;SDS011;9648;51.130;13.978;2022-12-15T06:01:01;50.15;;;26.17;;
19030;SDS011;9648;51.130;13.978;2022-12-15T06:03:29;58.20;;;30.60;;
19030;SDS011;9648;51.130;13.978;2022-12-15T06:05:56;54.25;;;27.95;;
19030;SDS011;9648;51.130;13.978;2022-12-15T06:08:25;53.07;;;27.60;;
19030;SDS011;9648;51.130;13.978;2022-12-15T06:10:53;50.30;;;26.33;;
19030;SDS011;9648;51.130;13.978;2022-12-15T06:13:20;54.70;;;29.40;;
19030;SDS011;9648;51.130;13.978;2022-12-15T06:15:54;58.83;;;31.13;;
19030;SDS011;9648;51.130;13.978;2022-12-15T06:18:22;52.75;;;27.45;;
19030;SDS011;9648;51.130;13.978;2022-12-15T06:20:55;51.58;;;27.90;;
19030;SDS011;9648;51.130;13.978;2022-12-15T06:23:22;51.97;;;27.50;;
19030;SDS011;9648;51.130;13.978;2022-12-15T06:25:51;53.13;;;27.52;;
19030;SDS011;9648;51.130;13.978;2022-12-15T06:28:18;54.22;;;28.45;;
19030;SDS011;9648;51.130;13.978;2022-12-15T06:30:48;52.80;;;27.02;;
19030;SDS011;9648;51.130;13.978;2022-12-15T06:33:16;51.58;;;26.92;;
19030;SDS011;9648;51.130;13.978;2022-12-15T06:35:42;51.83;;;26.05;;
19030;SDS011;9648;51.130;13.978;2022-12-15T06:38:09;48.07;;;25.43;;
19030;SDS011;9648;51.130;13.978;2022-12-15T06:40:36;49.30;;;26.27;;
19030;SDS011;9648;51.130;13.978;2022-12-15T06:43:05;47.53;;;24.87;;
19030;SDS011;9648;51.130;13.978;2022-12-15T06:45:32;50.10;;;26.30;;
19030;SDS011;9648;51.130;13.978;2022-12-15T06:47:58;49.78;;;26.45;;
19030;SDS011;9648;51.130;13.978;2022-12-15T06:50:25;48.70;;;25.55;;
19030;SDS011;9648;51.130;13.978;2022-12-15T06:52:52;45.97;;;24.80;;
19030;SDS011;9648;51.130;13.978;2022-12-15T06:55:19;49.88;;;26.05;;
19030;SDS011;9648;51.130;13.978;2022-12-15T06:57:46;50.60;;;25.75;;
19030;SDS011;9648;51.130;13.978;2022-12-15T07:00:14;49.65;;;25.65;;
19030;SDS011;9648;51.130;13.978;2022-12-15T07:02:42;48.35;;;25.13;;
19030;SDS011;9648;51.130;13.978;2022-12-15T07:05:08;46.92;;;24.40;;
19030;SDS011;9648;51.130;13.978;2022-12-15T07:07:35;48.00;;;24.73;;
19030;SDS011;9648;51.130;13.978;2022-12-15T07:10:02;48.95;;;25.40;;
19030;SDS011;9648;51.130;13.978;2022-12-15T07:12:30;47.72;;;25.00;;
19030;SDS011;9648;51.130;13.978;2022-12-15T07:14:57;49.10;;;24.83;;
19030;SDS011;9648;51.130;13.978;2022-12-15T07:17:25;46.50;;;24.73;;
19030;SDS011;9648;51.130;13.978;2022-12-15T07:19:52;46.58;;;24.23;;
19030;SDS011;9648;51.130;13.978;2022-12-15T07:22:19;46.03;;;24.15;;
19030;SDS011;9648;51.130;13.978;2022-12-15T07:24:46;44.72;;;24.05;;
19030;SDS011;9648;51.130;13.978;2022-12-15T07:27:13;48.80;;;25.25;;
19030;SDS011;9648;51.130;13.978;2022-12-15T07:29:40;48.25;;;25.73;;
19030;SDS011;9648;51.130;13.978;2022-12-15T07:32:07;56.10;;;27.67;;
19030;SDS011;9648;51.130;13.978;2022-12-15T07:34:35;56.28;;;27.45;;
19030;SDS011;9648;51.130;13.978;2022-12-15T07:37:02;56.13;;;27.98;;
19030;SDS011;9648;51.130;13.978;2022-12-15T07:39:29;57.83;;;28.38;;
19030;SDS011;9648;51.130;13.978;2022-12-15T07:41:56;56.63;;;27.58;;
19030;SDS011;9648;51.130;13.978;2022-12-15T07:44:23;58.10;;;28.83;;
19030;SDS011;9648;51.130;13.978;2022-12-15T07:46:50;56.45;;;27.73;;
19030;SDS011;9648;51.130;13.978;2022-12-15T07:49:17;52.80;;;26.83;;
19030;SDS011;9648;51.130;13.978;2022-12-15T07:51:45;52.97;;;26.20;;
19030;SDS011;9648;51.130;13.978;2022-12-15T07:54:13;47.97;;;24.95;;
19030;SDS011;9648;51.130;13.978;2022-12-15T07:56:40;38.97;;;21.50;;
19030;SDS011;9648;51.130;13.978;2022-12-15T07:59:11;43.38;;;23.15;;
19030;SDS011;9648;51.130;13.978;2022-12-15T08:01:41;42.80;;;22.50;;
19030;SDS011;9648;51.130;13.978;2022-12-15T08:04:14;41.42;;;22.42;;
19030;SDS011;9648;51.130;13.978;2022-12-15T08:06:42;42.17;;;21.95;;
19030;SDS011;9648;51.130;13.978;2022-12-15T08:09:10;44.03;;;22.63;;
19030;SDS011;9648;51.130;13.978;2022-12-15T08:11:37;42.72;;;22.88;;
19030;SDS011;9648;51.130;13.978;2022-12-15T08:14:04;44.77;;;23.30;;
19030;SDS011;9648;51.130;13.978;2022-12-15T08:16:31;39.70;;;21.15;;
19030;SDS011;9648;51.130;13.978;2022-12-15T08:18:58;40.92;;;21.02;;
19030;SDS011;9648;51.130;13.978;2022-12-15T08:21:25;38.15;;;20.92;;
19030;SDS011;9648;51.130;13.978;2022-12-15T08:23:52;36.03;;;19.98;;
19030;SDS011;9648;51.130;13.978;2022-12-15T08:26:20;39.40;;;21.02;;
19030;SDS011;9648;51.130;13.978;2022-12-15T08:28:47;38.35;;;20.95;;
19030;SDS011;9648;51.130;13.978;2022-12-15T08:31:15;45.15;;;23.58;;
19030;SDS011;9648;51.130;13.978;2022-12-15T08:33:43;51.95;;;27.33;;
19030;SDS011;9648;51.130;13.978;2022-12-15T08:36:14;53.78;;;29.45;;
19030;SDS011;9648;51.130;13.978;2022-12-15T08:38:43;58.35;;;32.17;;
19030;SDS011;9648;51.130;13.978;2022-12-15T08:41:11;55.05;;;30.98;;
19030;SDS011;9648;51.130;13.978;2022-12-15T08:43:44;55.57;;;29.97;;
19030;SDS011;9648;51.130;13.978;2022-12-15T08:46:12;49.42;;;27.10;;
19030;SDS011;9648;51.130;13.978;2022-12-15T08:48:39;48.42;;;26.25;;
19030;SDS011;9648;51.130;13.978;2022-12-15T08:51:05;63.00;;;33.92;;
19030;SDS011;9648;51.130;13.978;2022-12-15T08:53:33;71.88;;;36.70;;
19030;SDS011;9648;51.130;13.978;2022-12-15T08:56:01;74.80;;;38.05;;
19030;SDS011;9648;51.130;13.978;2022-12-15T08:58:28;70.88;;;35.95;;
19030;SDS011;9648;51.130;13.978;2022-12-15T09:00:59;65.47;;;33.25;;
19030;SDS011;9648;51.130;13.978;2022-12-15T09:03:27;73.03;;;35.83;;
19030;SDS011;9648;51.130;13.978;2022-12-15T09:05:54;57.35;;;29.98;;
19030;SDS011;9648;51.130;13.978;2022-12-15T09:08:22;54.00;;;27.37;;
19030;SDS011;9648;51.130;13.978;2022-12-15T09:10:50;47.58;;;26.48;;
19030;SDS011;9648;51.130;13.978;2022-12-15T09:13:17;48.70;;;26.20;;
19030;SDS011;9648;51.130;13.978;2022-12-15T09:15:43;54.53;;;29.73;;
19030;SDS011;9648;51.130;13.978;2022-12-15T09:18:12;63.45;;;34.20;;
19030;SDS011;9648;51.130;13.978;2022-12-15T09:20:40;62.10;;;31.88;;
19030;SDS011;9648;51.130;13.978;2022-12-15T09:23:07;57.25;;;30.98;;
19030;SDS011;9648;51.130;13.978;2022-12-15T09:25:33;51.28;;;28.73;;
19030;SDS011;9648;51.130;13.978;2022-12-15T09:28:00;47.53;;;26.90;;
19030;SDS011;9648;51.130;13.978;2022-12-15T09:30:27;53.72;;;30.02;;
19030;SDS011;9648;51.130;13.978;2022-12-15T09:32:54;71.15;;;39.13;;
19030;SDS011;9648;51.130;13.978;2022-12-15T09:35:22;70.63;;;39.60;;
19030;SDS011;9648;51.130;13.978;2022-12-15T09:37:51;68.43;;;38.33;;
19030;SDS011;9648;51.130;13.978;2022-12-15T09:40:18;69.15;;;36.47;;
19030;SDS011;9648;51.130;13.978;2022-12-15T09:42:46;69.40;;;36.93;;
19030;SDS011;9648;51.130;13.978;2022-12-15T09:45:18;63.30;;;34.15;;
19030;SDS011;9648;51.130;13.978;2022-12-15T09:47:52;55.08;;;31.73;;
19030;SDS011;9648;51.130;13.978;2022-12-15T09:50:25;53.40;;;30.37;;
19030;SDS011;9648;51.130;13.978;2022-12-15T09:52:58;53.17;;;29.95;;
19030;SDS011;9648;51.130;13.978;2022-12-15T09:55:27;53.42;;;29.50;;
19030;SDS011;9648;51.130;13.978;2022-12-15T09:57:55;53.55;;;29.52;;
19030;SDS011;9648;51.130;13.978;2022-12-15T10:00:27;51.00;;;28.80;;
19030;SDS011;9648;51.130;13.978;2022-12-15T10:03:16;49.22;;;27.88;;
19030;SDS011;9648;51.130;13.978;2022-12-15T10:06:07;47.30;;;26.52;;
19030;SDS011;9648;51.130;13.978;2022-12-15T10:08:36;49.53;;;27.27;;
19030;SDS011;9648;51.130;13.978;2022-12-15T10:11:13;46.10;;;26.17;;
19030;SDS011;9648;51.130;13.978;2022-12-15T10:13:50;47.83;;;26.90;;
19030;SDS011;9648;51.130;13.978;2022-12-15T10:16:21;45.33;;;26.08;;
19030;SDS011;9648;51.130;13.978;2022-12-15T10:18:54;46.30;;;27.27;;
19030;SDS011;9648;51.130;13.978;2022-12-15T10:21:30;48.30;;;27.02;;
19030;SDS011;9648;51.130;13.978;2022-12-15T10:24:00;44.70;;;25.58;;
19030;SDS011;9648;51.130;13.978;2022-12-15T10:26:38;46.42;;;25.67;;
19030;SDS011;9648;51.130;13.978;2022-12-15T10:29:22;42.55;;;25.42;;
19030;SDS011;9648;51.130;13.978;2022-12-15T10:31:57;43.70;;;24.53;;
19030;SDS011;9648;51.130;13.978;2022-12-15T10:34:30;92.30;;;48.20;;
19030;SDS011;9648;51.130;13.978;2022-12-15T10:37:01;94.43;;;49.35;;
19030;SDS011;9648;51.130;13.978;2022-12-15T10:39:35;80.35;;;41.85;;
19030;SDS011;9648;51.130;13.978;2022-12-15T10:42:08;48.58;;;27.48;;
19030;SDS011;9648;51.130;13.978;2022-12-15T10:44:41;44.88;;;25.67;;
19030;SDS011;9648;51.130;13.978;2022-12-15T10:47:15;43.27;;;24.70;;
19030;SDS011;9648;51.130;13.978;2022-12-15T10:49:45;43.92;;;24.73;;
19030;SDS011;9648;51.130;13.978;2022-12-15T10:55:11;41.93;;;24.43;;
19030;SDS011;9648;51.130;13.978;2022-12-15T10:57:57;37.55;;;22.55;;
19030;SDS011;9648;51.130;13.978;2022-12-15T11:00:26;44.55;;;25.90;;
19030;SDS011;9648;51.130;13.978;2022-12-15T11:02:54;43.00;;;24.80;;
19030;SDS011;9648;51.130;13.978;2022-12-15T11:05:23;41.17;;;23.92;;
19030;SDS011;9648;51.130;13.978;2022-12-15T11:07:51;42.40;;;24.52;;
19030;SDS011;9648;51.130;13.978;2022-12-15T11:10:20;38.38;;;23.02;;
19030;SDS011;9648;51.130;13.978;2022-12-15T11:12:58;37.97;;;21.70;;
19030;SDS011;9648;51.130;13.978;2022-12-15T11:15:38;38.35;;;22.50;;
19030;SDS011;9648;51.130;13.978;2022-12-15T11:18:16;35.43;;;20.90;;
19030;SDS011;9648;51.130;13.978;2022-12-15T11:20:50;33.58;;;19.92;;
19030;SDS011;9648;51.130;13.978;2022-12-15T11:23:20;29.70;;;17.67;;
19030;SDS011;9648;51.130;13.978;2022-12-15T11:26:10;29.42;;;17.60;;
19030;SDS011;9648;51.130;13.978;2022-12-15T11:29:04;30.27;;;18.55;;
19030;SDS011;9648;51.130;13.978;2022-12-15T11:31:39;29.40;;;17.45;;
19030;SDS011;9648;51.130;13.978;2022-12-15T11:34:10;28.27;;;16.93;;
19030;SDS011;9648;51.130;13.978;2022-12-15T11:36:43;27.40;;;16.52;;
19030;SDS011;9648;51.130;13.978;2022-12-15T11:39:27;26.38;;;16.05;;
19030;SDS011;9648;51.130;13.978;2022-12-15T11:42:08;26.50;;;15.27;;
19030;SDS011;9648;51.130;13.978;2022-12-15T11:44:44;24.23;;;14.90;;
19030;SDS011;9648;51.130;13.978;2022-12-15T11:47:20;22.90;;;14.68;;
19030;SDS011;9648;51.130;13.978;2022-12-15T11:50:02;22.77;;;14.30;;
19030;SDS011;9648;51.130;13.978;2022-12-15T11:55:45;23.52;;;13.55;;
19030;SDS011;9648;51.130;13.978;2022-12-15T12:01:20;23.38;;;13.82;;
19030;SDS011;9648;51.130;13.978;2022-12-15T12:04:03;25.00;;;14.73;;
19030;SDS011;9648;51.130;13.978;2022-12-15T12:06:42;22.45;;;13.93;;
19030;SDS011;9648;51.130;13.978;2022-12-15T12:09:28;21.67;;;13.77;;
19030;SDS011;9648;51.130;13.978;2022-12-15T12:12:00;20.63;;;12.50;;
19030;SDS011;9648;51.130;13.978;2022-12-15T12:14:38;21.57;;;13.10;;
19030;SDS011;9648;51.130;13.978;2022-12-15T12:17:15;24.30;;;14.25;;
19030;SDS011;9648;51.130;13.978;2022-12-15T12:19:50;22.13;;;14.25;;
19030;SDS011;9648;51.130;13.978;2022-12-15T12:22:20;22.73;;;13.50;;
19030;SDS011;9648;51.130;13.978;2022-12-15T12:24:50;23.95;;;14.07;;
19030;SDS011;9648;51.130;13.978;2022-12-15T12:27:24;22.70;;;13.93;;
19030;SDS011;9648;51.130;13.978;2022-12-15T12:29:57;21.52;;;13.75;;
19030;SDS011;9648;51.130;13.978;2022-12-15T12:32:29;23.08;;;13.73;;
19030;SDS011;9648;51.130;13.978;2022-12-15T12:35:05;24.90;;;14.88;;
19030;SDS011;9648;51.130;13.978;2022-12-15T12:37:41;26.42;;;15.77;;
19030;SDS011;9648;51.130;13.978;2022-12-15T12:40:14;25.88;;;15.68;;
19030;SDS011;9648;51.130;13.978;2022-12-15T12:42:46;22.53;;;14.40;;
19030;SDS011;9648;51.130;13.978;2022-12-15T12:45:18;19.98;;;13.20;;
19030;SDS011;9648;51.130;13.978;2022-12-15T12:47:51;21.15;;;13.30;;
19030;SDS011;9648;51.130;13.978;2022-12-15T12:50:21;20.88;;;13.10;;
19030;SDS011;9648;51.130;13.978;2022-12-15T12:52:50;23.25;;;13.50;;
19030;SDS011;9648;51.130;13.978;2022-12-15T12:55:22;21.00;;;12.75;;
19030;SDS011;9648;51.130;13.978;2022-12-15T12:57:52;24.08;;;14.00;;
19030;SDS011;9648;51.130;13.978;2022-12-15T13:00:21;23.92;;;14.77;;
19030;SDS011;9648;51.130;13.978;2022-12-15T13:05:52;23.73;;;14.43;;
19030;SDS011;9648;51.130;13.978;2022-12-15T13:14:20;24.05;;;14.93;;
19030;SDS011;9648;51.130;13.978;2022-12-15T13:16:54;23.30;;;14.75;;
19030;SDS011;9648;51.130;13.978;2022-12-15T13:22:25;23.40;;;14.68;;
19030;SDS011;9648;51.130;13.978;2022-12-15T13:24:56;26.20;;;16.20;;
19030;SDS011;9648;51.130;13.978;2022-12-15T13:27:23;25.98;;;15.95;;
19030;SDS011;9648;51.130;13.978;2022-12-15T13:30:00;27.60;;;16.90;;
19030;SDS011;9648;51.130;13.978;2022-12-15T13:32:32;26.60;;;16.50;;
19030;SDS011;9648;51.130;13.978;2022-12-15T13:37:49;26.88;;;16.40;;
19030;SDS011;9648;51.130;13.978;2022-12-15T13:40:27;26.83;;;16.30;;
19030;SDS011;9648;51.130;13.978;2022-12-15T13:43:01;24.20;;;14.98;;
19030;SDS011;9648;51.130;13.978;2022-12-15T13:45:45;24.42;;;15.70;;
19030;SDS011;9648;51.130;13.978;2022-12-15T13:48:21;25.25;;;16.25;;
19030;SDS011;9648;51.130;13.978;2022-12-15T13:50:55;25.42;;;15.60;;
19030;SDS011;9648;51.130;13.978;2022-12-15T13:53:30;25.20;;;15.88;;
19030;SDS011;9648;51.130;13.978;2022-12-15T13:56:05;26.80;;;15.93;;
19030;SDS011;9648;51.130;13.978;2022-12-15T13:59:03;25.38;;;15.50;;
19030;SDS011;9648;51.130;13.978;2022-12-15T14:01:37;26.40;;;16.30;;
19030;SDS011;9648;51.130;13.978;2022-12-15T14:04:13;27.75;;;17.08;;
19030;SDS011;9648;51.130;13.978;2022-12-15T14:06:43;27.63;;;17.33;;
19030;SDS011;9648;51.130;13.978;2022-12-15T14:09:15;27.50;;;15.75;;
19030;SDS011;9648;51.130;13.978;2022-12-15T14:11:46;24.98;;;15.35;;
19030;SDS011;9648;51.130;13.978;2022-12-15T14:14:15;21.67;;;13.90;;
19030;SDS011;9648;51.130;13.978;2022-12-15T14:16:51;24.60;;;14.43;;
19030;SDS011;9648;51.130;13.978;2022-12-15T14:19:23;24.88;;;15.02;;
19030;SDS011;9648;51.130;13.978;2022-12-15T14:21:51;24.40;;;14.70;;
19030;SDS011;9648;51.130;13.978;2022-12-15T14:24:25;23.55;;;14.90;;
19030;SDS011;9648;51.130;13.978;2022-12-15T14:26:53;25.15;;;15.50;;
19030;SDS011;9648;51.130;13.978;2022-12-15T14:29:20;25.52;;;15.57;;
19030;SDS011;9648;51.130;13.978;2022-12-15T14:31:52;25.50;;;15.55;;
19030;SDS011;9648;51.130;13.978;2022-12-15T14:34:25;27.08;;;16.38;;
19030;SDS011;9648;51.130;13.978;2022-12-15T14:36:56;28.35;;;16.10;;
19030;SDS011;9648;51.130;13.978;2022-12-15T14:39:29;24.90;;;15.10;;
19030;SDS011;9648;51.130;13.978;2022-12-15T14:42:01;27.42;;;15.10;;
19030;SDS011;9648;51.130;13.978;2022-12-15T14:44:30;24.65;;;14.80;;
19030;SDS011;9648;51.130;13.978;2022-12-15T14:46:59;24.30;;;14.77;;
19030;SDS011;9648;51.130;13.978;2022-12-15T14:49:28;25.30;;;15.23;;
19030;SDS011;9648;51.130;13.978;2022-12-15T14:51:58;26.92;;;15.45;;
19030;SDS011;9648;51.130;13.978;2022-12-15T14:54:31;26.13;;;14.98;;
19030;SDS011;9648;51.130;13.978;2022-12-15T14:57:01;27.15;;;16.02;;
19030;SDS011;9648;51.130;13.978;2022-12-15T14:59:38;29.67;;;16.80;;
19030;SDS011;9648;51.130;13.978;2022-12-15T15:02:11;28.92;;;16.00;;
19030;SDS011;9648;51.130;13.978;2022-12-15T15:04:53;29.45;;;16.42;;
19030;SDS011;9648;51.130;13.978;2022-12-15T15:07:21;29.03;;;16.60;;
19030;SDS011;9648;51.130;13.978;2022-12-15T15:09:50;29.97;;;16.93;;
19030;SDS011;9648;51.130;13.978;2022-12-15T15:12:18;29.45;;;16.80;;
19030;SDS011;9648;51.130;13.978;2022-12-15T15:14:47;28.65;;;16.23;;
19030;SDS011;9648;51.130;13.978;2022-12-15T15:17:20;36.35;;;21.65;;
19030;SDS011;9648;51.130;13.978;2022-12-15T15:19:50;33.30;;;18.85;;
19030;SDS011;9648;51.130;13.978;2022-12-15T15:22:23;29.33;;;16.80;;
19030;SDS011;9648;51.130;13.978;2022-12-15T15:25:28;29.38;;;17.00;;